createdAt,value
2022-11-29T00:01:21.161Z,960.2
2022-11-29T00:06:23.343Z,960.21
2022-11-29T00:11:24.931Z,960.16
2022-11-29T00:16:26.816Z,960.17
2022-11-29T00:21:28.081Z,960.19
2022-11-29T00:26:29.673Z,960.16
2022-11-29T00:31:31.565Z,960.06
2022-11-29T00:36:33.166Z,960.11
2022-11-29T00:41:34.977Z,960.1
2022-11-29T00:46:36.853Z,960.1
2022-11-29T00:51:38.675Z,960.07
2022-11-29T00:56:40.643Z,960.04
2022-11-29T01:01:41.923Z,960.07
2022-11-29T01:06:43.642Z,960.05
2022-11-29T01:11:45.640Z,960.02
2022-11-29T01:16:47.706Z,960.07
2022-11-29T01:21:49.111Z,960.07
2022-11-29T01:26:51.318Z,960.04
2022-11-29T01:31:53.350Z,960.04
2022-11-29T01:36:54.586Z,960.08
2022-11-29T01:41:56.223Z,960.1
2022-11-29T01:46:58.382Z,960.07
2022-11-29T01:51:59.990Z,960.06
2022-11-29T01:57:01.595Z,960.01
2022-11-29T02:02:02.969Z,959.99
2022-11-29T02:07:04.402Z,959.99
2022-11-29T02:12:05.795Z,959.96
2022-11-29T02:17:07.697Z,959.97
2022-11-29T02:22:09.508Z,959.96
2022-11-29T02:27:10.784Z,959.96
2022-11-29T02:32:12.794Z,959.98
2022-11-29T02:37:14.676Z,959.98
2022-11-29T02:42:16.848Z,959.96
2022-11-29T02:47:18.561Z,960.03
2022-11-29T02:52:20.331Z,960.02
2022-11-29T02:57:22.274Z,960.01
2022-11-29T03:02:24.366Z,960.06
2022-11-29T03:07:25.545Z,960.08
2022-11-29T03:12:27.520Z,960.13
2022-11-29T03:17:28.932Z,960.19
2022-11-29T03:22:30.678Z,960.2
2022-11-29T03:27:32.631Z,960.17
2022-11-29T03:32:34.799Z,960.24
2022-11-29T03:37:36.392Z,960.2
2022-11-29T03:42:37.857Z,960.25
2022-11-29T03:47:39.443Z,960.29
2022-11-29T03:52:40.730Z,960.3
2022-11-29T03:57:41.927Z,960.27
2022-11-29T04:02:43.265Z,960.17
2022-11-29T04:07:45.069Z,960.2
2022-11-29T04:12:46.795Z,960.2
2022-11-29T04:17:48.610Z,960.21
2022-11-29T04:22:50.162Z,960.21
2022-11-29T04:27:51.907Z,960.16
2022-11-29T04:32:53.610Z,960.18
2022-11-29T04:37:55.240Z,960.17
2022-11-29T04:42:56.989Z,960.13
2022-11-29T04:47:58.385Z,960.17
2022-11-29T04:52:59.875Z,960.26
2022-11-29T04:58:01.324Z,960.26
2022-11-29T05:03:02.656Z,960.31
2022-11-29T05:08:04.459Z,960.31
2022-11-29T05:13:06.465Z,960.31
2022-11-29T05:18:08.087Z,960.33
2022-11-29T05:23:09.699Z,960.37
2022-11-29T05:28:11.502Z,960.39
2022-11-29T05:33:12.863Z,960.43
2022-11-29T05:38:14.568Z,960.5
2022-11-29T05:43:16.405Z,960.57
2022-11-29T05:48:17.833Z,960.49
2022-11-29T05:53:19.604Z,960.57
2022-11-29T05:58:23.416Z,960.6
2022-11-29T06:03:22.833Z,960.61
2022-11-29T06:08:23.957Z,960.66
2022-11-29T06:13:25.619Z,960.66
2022-11-29T06:18:27.227Z,960.68
2022-11-29T06:23:28.926Z,960.72
2022-11-29T06:28:30.915Z,960.72
2022-11-29T06:33:33.015Z,960.72
2022-11-29T06:38:34.929Z,960.8
2022-11-29T06:43:36.094Z,960.82
2022-11-29T06:48:38.092Z,960.84
2022-11-29T06:53:39.832Z,960.8
2022-11-29T06:58:41.124Z,960.85
2022-11-29T07:03:42.979Z,960.88
2022-11-29T07:08:44.510Z,960.94
2022-11-29T07:13:46.006Z,960.98
2022-11-29T07:18:47.795Z,960.99
2022-11-29T07:23:49.137Z,961.02
2022-11-29T07:28:50.612Z,961.05
2022-11-29T07:33:52.729Z,961.06
2022-11-29T07:38:54.142Z,961.07
2022-11-29T07:43:56.043Z,961.06
2022-11-29T07:48:57.463Z,961.17
2022-11-29T07:53:59.210Z,961.11
2022-11-29T07:59:01.258Z,961.19
2022-11-29T08:04:03.259Z,961.17
2022-11-29T08:09:05.106Z,961.17
2022-11-29T08:14:07.193Z,961.19
2022-11-29T08:19:08.703Z,961.26
2022-11-29T08:24:10.479Z,961.32
2022-11-29T08:29:11.733Z,961.35
2022-11-29T08:34:14.011Z,961.32
2022-11-29T08:39:15.584Z,961.36
2022-11-29T08:44:17.238Z,961.39
2022-11-29T08:49:18.701Z,961.39
2022-11-29T08:54:20.437Z,961.39
2022-11-29T08:59:21.777Z,961.44
2022-11-29T09:04:23.407Z,961.44
2022-11-29T09:09:25.246Z,961.5
2022-11-29T09:14:27.421Z,961.51
2022-11-29T09:19:29.179Z,961.58
2022-11-29T09:24:31.001Z,961.58
2022-11-29T09:29:32.434Z,961.64
2022-11-29T09:34:33.823Z,961.66
2022-11-29T09:39:42.256Z,961.62
2022-11-29T09:44:43.624Z,961.61
2022-11-29T09:49:45.231Z,961.62
2022-11-29T09:54:46.922Z,961.63
2022-11-29T09:59:48.380Z,961.66
2022-11-29T10:04:49.739Z,961.67
2022-11-29T10:09:50.993Z,961.69
2022-11-29T10:14:52.346Z,961.7
2022-11-29T10:19:54.565Z,961.68
2022-11-29T10:24:56.167Z,961.66
2022-11-29T10:29:57.435Z,961.64
2022-11-29T10:34:58.978Z,961.59
2022-11-29T10:40:00.320Z,961.55
2022-11-29T10:45:01.543Z,961.53
2022-11-29T10:50:03.115Z,961.54
2022-11-29T10:55:04.710Z,961.56
2022-11-29T11:00:05.843Z,961.54
2022-11-29T11:05:07.956Z,961.56
2022-11-29T11:10:09.578Z,961.62
2022-11-29T11:15:11.123Z,961.61
2022-11-29T11:20:13.200Z,961.63
2022-11-29T11:25:14.758Z,961.61
2022-11-29T11:30:16.500Z,961.64
2022-11-29T11:35:18.572Z,961.7
2022-11-29T11:40:19.693Z,961.7
2022-11-29T11:45:20.989Z,961.69
2022-11-29T11:50:22.428Z,961.72
2022-11-29T11:55:24.050Z,961.68
2022-11-29T12:00:47.867Z,961.71
2022-11-29T12:05:27.174Z,961.71
2022-11-29T12:10:29.168Z,961.74
2022-11-29T12:15:31.049Z,961.77
2022-11-29T12:20:32.206Z,961.76
2022-11-29T12:25:34.185Z,961.79
2022-11-29T12:30:35.981Z,961.79
2022-11-29T12:35:37.523Z,961.81
2022-11-29T12:40:38.586Z,961.83
2022-11-29T12:45:40.229Z,961.83
2022-11-29T12:50:41.926Z,961.85
2022-11-29T12:55:43.250Z,961.85
2022-11-29T13:00:45.434Z,961.9
2022-11-29T13:05:46.753Z,961.88
2022-11-29T13:10:48.425Z,961.95
2022-11-29T13:51:01.803Z,962.17
2022-11-29T13:56:03.043Z,962.21
2022-11-29T14:06:07.730Z,962.23
2022-11-29T14:16:10.328Z,962.24
2022-11-29T14:21:12.082Z,962.28
2022-11-29T14:36:17.939Z,962.35
2022-11-29T14:41:20.096Z,962.37
2022-11-29T14:46:26.133Z,962.46
2022-11-29T14:51:23.520Z,962.49
2022-11-29T14:56:25.656Z,962.53
2022-11-29T15:01:27.470Z,962.45
2022-11-29T15:06:29.356Z,962.55
2022-11-29T15:11:30.631Z,962.57
2022-11-29T15:16:32.348Z,962.62
2022-11-29T15:21:33.840Z,962.6
2022-11-29T15:26:35.013Z,962.58
2022-11-29T15:31:36.940Z,962.6
2022-11-29T15:36:38.577Z,962.67
2022-11-29T15:41:40.164Z,962.73
2022-11-29T15:46:41.351Z,962.76
2022-11-29T15:51:43.023Z,962.84
2022-11-29T15:56:44.324Z,962.92
2022-11-29T16:01:46.055Z,962.98
2022-11-29T16:06:47.818Z,962.93
2022-11-29T16:11:49.012Z,962.94
2022-11-29T16:16:50.618Z,962.92
2022-11-29T16:21:51.810Z,962.98
2022-11-29T16:26:53.758Z,963.01
2022-11-29T16:31:55.572Z,963
2022-11-29T16:37:00.805Z,963.05
2022-11-29T16:41:58.799Z,962.98
2022-11-29T16:47:00.232Z,963.07
2022-11-29T16:52:02.110Z,963.06
2022-11-29T16:57:03.403Z,963.05
2022-11-29T17:02:04.713Z,963.06
2022-11-29T17:07:06.199Z,963.13
2022-11-29T17:12:07.827Z,963.15
2022-11-29T17:17:09.699Z,963.18
2022-11-29T17:22:11.137Z,963.17
2022-11-29T17:27:12.576Z,963.18
2022-11-29T17:32:14.631Z,963.21
2022-11-29T17:37:16.303Z,963.26
2022-11-29T17:42:17.737Z,963.35
2022-11-29T17:47:19.540Z,963.41
2022-11-29T17:52:21.755Z,963.39
2022-11-29T17:57:22.931Z,963.54
2022-11-29T18:02:24.640Z,963.61
2022-11-29T18:07:25.873Z,963.6
2022-11-29T18:12:27.454Z,963.54
2022-11-29T18:17:29.336Z,963.56
2022-11-29T18:22:30.784Z,963.62
2022-11-29T18:27:32.610Z,963.63
2022-11-29T18:32:34.691Z,963.75
2022-11-29T18:38:06.677Z,963.72
2022-11-29T18:42:38.737Z,963.77
2022-11-29T18:47:40.455Z,963.84
2022-11-29T18:52:42.524Z,963.84
2022-11-29T18:57:43.760Z,963.87
2022-11-29T19:02:45.252Z,963.88
2022-11-29T19:07:46.570Z,963.85
2022-11-29T19:12:47.976Z,963.85
2022-11-29T19:17:50.097Z,963.86
2022-11-29T19:22:54.872Z,963.89
2022-11-29T19:27:53.102Z,963.92
2022-11-29T19:32:55.030Z,963.93
2022-11-29T19:37:57.235Z,963.94
2022-11-29T19:42:58.426Z,964.03
2022-11-29T19:48:00.177Z,964.13
2022-11-29T19:53:01.450Z,964.19
2022-11-29T19:58:02.973Z,964.14
2022-11-29T20:03:05.144Z,964.14
2022-11-29T20:08:06.672Z,964.15
2022-11-29T20:13:07.894Z,964.17
2022-11-29T20:18:09.172Z,964.23
2022-11-29T20:23:10.825Z,964.29
2022-11-29T20:28:12.253Z,964.28
2022-11-29T20:33:13.588Z,964.34
2022-11-29T20:38:15.737Z,964.31
2022-11-29T20:43:17.151Z,964.35
2022-11-29T20:48:18.883Z,964.37
2022-11-29T20:53:20.582Z,964.43
2022-11-29T20:58:22.650Z,964.44
2022-11-29T21:03:24.851Z,964.51
2022-11-29T21:08:27.004Z,964.5
2022-11-29T21:13:28.295Z,964.53
2022-11-29T21:18:29.916Z,964.51
2022-11-29T21:23:31.366Z,964.51
2022-11-29T21:28:32.979Z,964.64
2022-11-29T21:33:35.133Z,964.6
2022-11-29T21:38:36.311Z,964.61
2022-11-29T21:44:04.737Z,964.62
2022-11-29T21:48:39.294Z,964.66
2022-11-29T21:53:41.520Z,964.64
2022-11-29T21:58:42.436Z,964.63
2022-11-29T22:03:43.828Z,964.7
2022-11-29T22:08:45.800Z,964.75
2022-11-29T22:13:47.166Z,964.71
2022-11-29T22:18:48.380Z,964.73
2022-11-29T22:23:50.506Z,964.64
2022-11-29T22:28:51.980Z,964.6
2022-11-29T22:33:54.249Z,964.59
2022-11-29T22:38:56.310Z,964.6
2022-11-29T22:43:58.084Z,964.62
2022-11-29T22:48:59.707Z,964.62
2022-11-29T22:54:01.868Z,964.6
2022-11-29T22:59:03.733Z,964.54
2022-11-29T23:14:09.484Z,964.54
2022-11-29T23:19:10.703Z,964.49
2022-11-29T23:24:11.923Z,964.51
2022-11-29T23:29:13.666Z,964.48
2022-11-29T23:34:15.846Z,964.51
2022-11-29T23:39:17.100Z,964.58
2022-11-29T23:44:19.309Z,964.59
2022-11-29T23:49:20.511Z,964.56
2022-11-29T23:54:22.056Z,964.58
2022-11-29T23:59:23.566Z,964.52
